Accueil
METAR-TAF:

METAR-TAF

Aéroports :

Aéroport Bob-Hope

Burbank, Californie, États-Unis

latitude: 34-11-59N, longitude: 118-21-53W, altitude: 236 m

Observation

Le bulletin a été fait il y a 21 minutes, à 23:53 UTC
Vent 4 kt de sud/sud-est
Température 17°C
Humidité 59%
Pression 1019 hPa
Visibilité: 16.1 km
Ciel clair

METAR: KBUR 222353Z 15004KT 10SM CLR 17/09 A3010 RMK AO2 SLP185 T01720089 10178 20117 55005

Heure: 16:14 (00:14 UTC)

Prévision

Le bulletin a été fait il y a 34 minutes, à 23:40 UTC
Prévision valable du 23 à 00 UTC au 23 à 24 UTC
Vent 7 kt de sud/sud-est
Visibilité: 10 km
Nuages épars à une hauteur de 20000 ft
A partir de 23 à 0200 UTC
Vent 3 kt de direction variable
Visibilité: 10 km
Nuages épars à une hauteur de 20000 ft
A partir de 23 à 2100 UTC
Vent 7 kt de sud
Visibilité: 10 km
Ciel clair

TAF: KBUR 222340Z 2300/2324 16007KT P6SM SCT200 FM230200 VRB03KT P6SM SCT200 FM232100 17007KT P6SM SKC

Observations et prévisions météorologiques de plus de 4000 aéroports (messages METAR et TAF).

Les stations disponibles sont représentées par des disques jaunes et rouges sur la carte.

Passer la souris dessus pour voir le nom de la station.

Cliquer dessus pour voir les observations et prévisions météorologiques.

Pour changer de carte: cliquez sur les boutons verts avec une croix noire pour zoomer, sur le bouton vert avec un tiret pour effectuer un zoom arrière, ou sur les flèches vertes pour les cartes adjacentes.


METAR-TAF: